Time;durP1;ratioP1;P1;durP2;ratioP2;P2;SDS_P1;SDS_P2;PMS_P1;PMS_P2;Temp;Humidity;BMP_temperature;BMP_pressure;BME280_temperature;BME280_humidity;BME280_pressure;Samples;Min_cycle;Max_cycle;Signal;HPM_P1;HPM_P2
2023/01/10 00:00:48;;;;;;;25.63;15.53;;;;;;;;;;5089289;28;20569;-84
2023/01/10 00:03:15;;;;;;;31.83;18.60;;;;;;;;;;5114468;28;20211;-85
2023/01/10 00:05:43;;;;;;;25.83;17.20;;;;;;;;;;5096408;28;20226;-85
2023/01/10 00:08:15;;;;;;;27.97;17.40;;;;;;;;;;5080727;28;20593;-85
2023/01/10 00:10:42;;;;;;;33.63;17.33;;;;;;;;;;5093362;28;20204;-85
2023/01/10 00:13:22;;;;;;;33.70;17.63;;;;;;;;;;5076033;28;20224;-85
2023/01/10 00:15:49;;;;;;;29.33;17.40;;;;;;;;;;5080666;28;20743;-85
2023/01/10 00:18:16;;;;;;;35.03;18.57;;;;;;;;;;5076231;28;20200;-83
2023/01/10 00:20:45;;;;;;;26.93;15.50;;;;;;;;;;5062458;28;20204;-84
2023/01/10 00:23:13;;;;;;;28.97;17.30;;;;;;;;;;5076052;28;20280;-85
2023/01/10 00:25:41;;;;;;;32.97;16.57;;;;;;;;;;5071163;28;20197;-84
2023/01/10 00:28:18;;;;;;;24.60;14.77;;;;;;;;;;5067121;28;20214;-85
2023/01/10 00:30:50;;;;;;;25.23;14.70;;;;;;;;;;5080289;28;20287;-84
2023/01/10 00:33:19;;;;;;;28.17;17.23;;;;;;;;;;5093880;28;20226;-85
2023/01/10 00:35:48;;;;;;;23.63;15.10;;;;;;;;;;5070156;28;20207;-84
2023/01/10 00:38:15;;;;;;;26.83;16.17;;;;;;;;;;5095265;28;20620;-85
2023/01/10 00:40:43;;;;;;;24.13;15.63;;;;;;;;;;5114019;28;20211;-84
2023/01/10 00:45:56;;;;;;;30.70;15.93;;;;;;;;;;5103063;28;20207;-84
2023/01/10 00:48:23;;;;;;;27.63;16.00;;;;;;;;;;5083297;28;20283;-84
2023/01/10 00:50:51;;;;;;;22.80;14.87;;;;;;;;;;5072950;28;20672;-84
2023/01/10 00:53:18;;;;;;;22.40;15.50;;;;;;;;;;5100427;28;20233;-84
2023/01/10 00:55:45;;;;;;;28.40;16.43;;;;;;;;;;5096621;28;20218;-84
2023/01/10 00:58:13;;;;;;;32.73;17.07;;;;;;;;;;5113372;28;20199;-84
2023/01/10 01:00:40;;;;;;;19.57;13.40;;;;;;;;;;5113431;28;20923;-84
2023/01/10 01:03:07;;;;;;;20.73;13.40;;;;;;;;;;5092519;28;20279;-85
2023/01/10 01:05:40;;;;;;;21.70;12.87;;;;;;;;;;5093336;28;20224;-84
2023/01/10 01:08:08;;;;;;;24.50;13.60;;;;;;;;;;5072669;28;20753;-84
2023/01/10 01:10:35;;;;;;;25.63;15.27;;;;;;;;;;5068687;28;20196;-84
2023/01/10 01:13:07;;;;;;;27.50;16.30;;;;;;;;;;5074710;28;20236;-84
2023/01/10 01:15:34;;;;;;;32.57;17.37;;;;;;;;;;5092406;28;20192;-84
2023/01/10 01:18:02;;;;;;;29.13;16.60;;;;;;;;;;5092858;28;20299;-84
2023/01/10 01:20:29;;;;;;;29.00;18.20;;;;;;;;;;5091077;28;20216;-84
2023/01/10 01:22:56;;;;;;;29.57;15.17;;;;;;;;;;5063915;28;20262;-82
2023/01/10 01:25:24;;;;;;;35.47;16.10;;;;;;;;;;5106296;28;20212;-85
2023/01/10 01:27:51;;;;;;;28.30;17.37;;;;;;;;;;5102124;28;20207;-84
2023/01/10 01:30:18;;;;;;;25.00;14.90;;;;;;;;;;5111116;28;20230;-84
2023/01/10 01:32:45;;;;;;;22.70;15.40;;;;;;;;;;5092983;28;20224;-83
2023/01/10 01:35:14;;;;;;;23.63;14.37;;;;;;;;;;5078473;28;20684;-84
2023/01/10 01:37:42;;;;;;;24.50;14.40;;;;;;;;;;5064857;28;20210;-84
2023/01/10 01:40:13;;;;;;;24.60;15.17;;;;;;;;;;5075267;28;20207;-83
2023/01/10 01:42:42;;;;;;;22.70;14.97;;;;;;;;;;5092642;28;20269;-85
2023/01/10 01:45:40;;;;;;;28.03;14.73;;;;;;;;;;5096851;28;20215;-84
2023/01/10 01:48:12;;;;;;;25.73;15.67;;;;;;;;;;5107634;28;20199;-85
2023/01/10 01:50:43;;;;;;;21.73;14.27;;;;;;;;;;5092342;28;20207;-85
2023/01/10 01:53:16;;;;;;;25.80;15.03;;;;;;;;;;5085268;28;20219;-84
2023/01/10 01:55:43;;;;;;;27.53;15.10;;;;;;;;;;5100612;28;20705;-85
2023/01/10 01:58:14;;;;;;;30.83;16.17;;;;;;;;;;5091904;28;20213;-84
2023/01/10 02:00:42;;;;;;;25.50;15.70;;;;;;;;;;5104431;28;20203;-81
2023/01/10 02:03:09;;;;;;;22.43;15.37;;;;;;;;;;5093337;28;20207;-81
2023/01/10 02:05:38;;;;;;;26.70;17.97;;;;;;;;;;5111948;28;20236;-81
2023/01/10 02:08:05;;;;;;;31.83;18.83;;;;;;;;;;5091524;28;20723;-81
2023/01/10 02:10:36;;;;;;;26.43;16.40;;;;;;;;;;5091966;28;20211;-80
2023/01/10 02:13:05;;;;;;;29.90;18.77;;;;;;;;;;5078498;28;20220;-81
2023/01/10 02:15:33;;;;;;;34.00;19.97;;;;;;;;;;5072890;28;20208;-82
2023/01/10 02:18:02;;;;;;;32.77;19.40;;;;;;;;;;5091574;28;20197;-85
2023/01/10 02:20:33;;;;;;;31.67;20.17;;;;;;;;;;5091240;28;20223;-82
2023/01/10 02:23:30;;;;;;;33.90;19.93;;;;;;;;;;5091660;28;20192;-81
2023/01/10 02:26:21;;;;;;;28.93;19.90;;;;;;;;;;5081970;28;20280;-83
2023/01/10 02:29:08;;;;;;;31.23;18.83;;;;;;;;;;5093832;28;20645;-83
2023/01/10 02:32:05;;;;;;;32.10;23.83;;;;;;;;;;5104180;28;20210;-83
2023/01/10 02:34:36;;;;;;;59.20;41.57;;;;;;;;;;5078060;28;20286;-86
2023/01/10 02:37:10;;;;;;;70.03;43.87;;;;;;;;;;5091028;28;20201;-83
2023/01/10 02:39:43;;;;;;;71.93;45.93;;;;;;;;;;5091475;28;20640;-83
2023/01/10 02:42:13;;;;;;;37.37;21.67;;;;;;;;;;5090839;28;20208;-83
2023/01/10 02:44:43;;;;;;;34.73;22.13;;;;;;;;;;5104417;28;20203;-83
2023/01/10 02:47:10;;;;;;;31.70;19.07;;;;;;;;;;5078412;28;20215;-82
2023/01/10 02:49:54;;;;;;;34.03;20.43;;;;;;;;;;5089994;28;20219;-83
2023/01/10 02:52:23;;;;;;;34.37;19.10;;;;;;;;;;5072814;28;20204;-83
2023/01/10 02:54:52;;;;;;;33.60;20.33;;;;;;;;;;5087007;28;20582;-83
2023/01/10 02:57:41;;;;;;;32.93;21.07;;;;;;;;;;5081903;28;20219;-83
2023/01/10 03:00:15;;;;;;;35.20;21.67;;;;;;;;;;5091008;28;20207;-83
2023/01/10 03:02:59;;;;;;;30.90;20.07;;;;;;;;;;5090607;28;21014;-82
2023/01/10 03:05:37;;;;;;;32.93;21.30;;;;;;;;;;5079841;28;20311;-83
2023/01/10 03:08:11;;;;;;;40.73;21.70;;;;;;;;;;5083832;28;20197;-83
2023/01/10 03:10:44;;;;;;;36.13;21.67;;;;;;;;;;5083283;28;20685;-83
2023/01/10 03:13:15;;;;;;;38.07;21.50;;;;;;;;;;5060348;28;20228;-83
2023/01/10 03:15:42;;;;;;;31.77;20.93;;;;;;;;;;5072761;28;20208;-83
2023/01/10 03:18:12;;;;;;;31.00;19.53;;;;;;;;;;5061644;28;20608;-82
2023/01/10 03:20:42;;;;;;;30.53;21.10;;;;;;;;;;5103580;28;20200;-83
2023/01/10 03:23:11;;;;;;;32.10;19.50;;;;;;;;;;5101269;28;20199;-83
2023/01/10 03:25:39;;;;;;;34.60;19.80;;;;;;;;;;5110170;28;20206;-83
2023/01/10 03:28:08;;;;;;;32.63;19.17;;;;;;;;;;5082132;28;20245;-83
2023/01/10 03:30:40;;;;;;;32.60;19.80;;;;;;;;;;5103800;28;20760;-84
2023/01/10 03:33:07;;;;;;;29.40;19.07;;;;;;;;;;5102683;28;20219;-83
2023/01/10 03:35:43;;;;;;;31.17;18.17;;;;;;;;;;5097151;28;20222;-83
2023/01/10 03:38:15;;;;;;;32.63;19.20;;;;;;;;;;5109958;28;20646;-83
2023/01/10 03:40:47;;;;;;;30.80;17.93;;;;;;;;;;5069909;28;20247;-83
2023/01/10 03:46:03;;;;;;;33.57;18.57;;;;;;;;;;5111099;28;20203;-83
2023/01/10 03:48:32;;;;;;;43.00;20.33;;;;;;;;;;5096794;28;20747;-83
2023/01/10 03:51:02;;;;;;;37.80;18.67;;;;;;;;;;5097755;28;20208;-82
2023/01/10 03:53:29;;;;;;;41.00;20.33;;;;;;;;;;5089772;28;20781;-83
2023/01/10 03:55:56;;;;;;;34.47;20.27;;;;;;;;;;5072252;28;20204;-82
2023/01/10 03:58:24;;;;;;;42.17;21.73;;;;;;;;;;5078663;28;20682;-84
2023/01/10 04:00:51;;;;;;;32.20;18.77;;;;;;;;;;5083068;28;20587;-83
2023/01/10 04:03:18;;;;;;;70.43;37.53;;;;;;;;;;5077266;28;20204;-85
2023/01/10 04:05:45;;;;;;;71.00;37.90;;;;;;;;;;5072597;28;20242;-82
2023/01/10 04:08:13;;;;;;;36.67;22.33;;;;;;;;;;5085293;28;20201;-82
2023/01/10 04:10:40;;;;;;;38.70;21.43;;;;;;;;;;5058894;28;20684;-83
2023/01/10 04:13:08;;;;;;;46.10;22.63;;;;;;;;;;5110394;28;20223;-82
2023/01/10 04:15:35;;;;;;;35.33;20.90;;;;;;;;;;5107199;28;20260;-83
2023/01/10 04:18:02;;;;;;;35.90;19.23;;;;;;;;;;5092255;28;20709;-84
2023/01/10 04:20:29;;;;;;;32.77;19.87;;;;;;;;;;5080727;28;20696;-82
2023/01/10 04:22:56;;;;;;;25.00;16.90;;;;;;;;;;5099816;28;20200;-83
2023/01/10 04:25:25;;;;;;;112.43;58.47;;;;;;;;;;5075162;28;20196;-84
2023/01/10 04:27:52;;;;;;;124.90;65.47;;;;;;;;;;5085008;28;20227;-84
2023/01/10 04:30:19;;;;;;;49.83;27.13;;;;;;;;;;5105363;28;20207;-83
2023/01/10 04:32:47;;;;;;;32.33;18.43;;;;;;;;;;5105273;28;20208;-83
2023/01/10 04:35:14;;;;;;;32.13;18.13;;;;;;;;;;5093628;28;20595;-83
2023/01/10 04:37:41;;;;;;;34.13;18.77;;;;;;;;;;5093766;28;20199;-83
2023/01/10 04:40:09;;;;;;;36.40;20.60;;;;;;;;;;5093630;28;20228;-83
2023/01/10 04:42:38;;;;;;;35.67;19.23;;;;;;;;;;5103717;28;20207;-82
2023/01/10 04:45:05;;;;;;;37.63;23.20;;;;;;;;;;5096482;28;20222;-83
2023/01/10 04:47:34;;;;;;;42.23;24.23;;;;;;;;;;5086574;28;20204;-83
2023/01/10 04:50:01;;;;;;;36.00;20.77;;;;;;;;;;5092547;28;20223;-83
2023/01/10 04:52:28;;;;;;;49.23;29.60;;;;;;;;;;5079926;28;20196;-83
2023/01/10 04:54:56;;;;;;;37.07;20.53;;;;;;;;;;5098231;28;20771;-83
2023/01/10 04:57:23;;;;;;;29.93;19.13;;;;;;;;;;5092921;28;20197;-83
2023/01/10 04:59:51;;;;;;;36.23;19.97;;;;;;;;;;5098476;28;20196;-83
2023/01/10 05:02:18;;;;;;;35.63;22.43;;;;;;;;;;5084553;28;20260;-83
2023/01/10 05:04:47;;;;;;;35.73;19.40;;;;;;;;;;5062965;28;20225;-82
2023/01/10 05:07:14;;;;;;;28.27;18.33;;;;;;;;;;5091534;28;20203;-82
2023/01/10 05:09:41;;;;;;;29.93;18.77;;;;;;;;;;5075383;28;20200;-83
2023/01/10 05:12:08;;;;;;;30.73;20.17;;;;;;;;;;5043553;28;20220;-86
2023/01/10 05:14:35;;;;;;;44.03;26.90;;;;;;;;;;5097255;28;20228;-83
2023/01/10 05:17:04;;;;;;;45.43;26.27;;;;;;;;;;5087596;28;20679;-83
2023/01/10 05:19:30;;;;;;;42.67;31.63;;;;;;;;;;5070286;28;20209;-84
2023/01/10 05:21:57;;;;;;;49.87;30.73;;;;;;;;;;5066992;28;20205;-82
2023/01/10 05:24:24;;;;;;;37.40;26.13;;;;;;;;;;5098545;28;20199;-82
2023/01/10 05:26:51;;;;;;;35.77;22.80;;;;;;;;;;5087681;28;20220;-83
2023/01/10 05:29:18;;;;;;;31.47;20.23;;;;;;;;;;5105839;28;20200;-82
2023/01/10 05:31:45;;;;;;;35.80;20.77;;;;;;;;;;5097060;28;20192;-82
2023/01/10 05:34:13;;;;;;;58.33;33.40;;;;;;;;;;5084366;28;20754;-83
2023/01/10 05:36:40;;;;;;;46.83;25.30;;;;;;;;;;5086963;28;20201;-83
2023/01/10 05:39:08;;;;;;;32.07;20.43;;;;;;;;;;5083984;28;20205;-83
2023/01/10 05:41:35;;;;;;;35.67;20.33;;;;;;;;;;5069866;28;20192;-82
2023/01/10 05:44:03;;;;;;;34.27;21.57;;;;;;;;;;5074476;28;20200;-83
2023/01/10 05:46:29;;;;;;;33.17;19.07;;;;;;;;;;5092454;28;20258;-83
2023/01/10 05:48:56;;;;;;;35.80;19.33;;;;;;;;;;5092322;28;20196;-82
2023/01/10 05:51:24;;;;;;;45.33;25.33;;;;;;;;;;5094857;28;20204;-82
2023/01/10 05:53:51;;;;;;;33.00;19.57;;;;;;;;;;5112598;28;20223;-82
2023/01/10 05:56:18;;;;;;;35.23;22.03;;;;;;;;;;5109537;28;20208;-80
2023/01/10 05:58:45;;;;;;;43.50;26.27;;;;;;;;;;5091727;28;20197;-81
2023/01/10 06:01:12;;;;;;;36.23;17.53;;;;;;;;;;5081902;28;20620;-81
2023/01/10 06:03:39;;;;;;;26.80;18.73;;;;;;;;;;5112868;28;20217;-81
2023/01/10 06:06:06;;;;;;;32.57;18.77;;;;;;;;;;5108916;28;20325;-81
2023/01/10 06:08:35;;;;;;;25.57;19.70;;;;;;;;;;5091836;28;20737;-81
2023/01/10 06:11:02;;;;;;;17.97;15.30;;;;;;;;;;5091908;28;20207;-80
2023/01/10 06:13:29;;;;;;;16.57;14.33;;;;;;;;;;5091966;28;20223;-81
2023/01/10 06:15:56;;;;;;;15.73;14.00;;;;;;;;;;5091683;28;20923;-80
2023/01/10 06:18:23;;;;;;;13.97;12.53;;;;;;;;;;5091613;28;20269;-81
2023/01/10 06:20:49;;;;;;;11.10;10.00;;;;;;;;;;5096923;28;20204;-81
2023/01/10 06:23:16;;;;;;;12.80;11.43;;;;;;;;;;5099808;28;20245;-81
2023/01/10 06:25:45;;;;;;;11.97;10.73;;;;;;;;;;5111076;28;20276;-81
2023/01/10 06:28:13;;;;;;;21.07;15.13;;;;;;;;;;5112135;28;20199;-81
2023/01/10 06:30:42;;;;;;;14.00;12.60;;;;;;;;;;5111578;28;20191;-80
2023/01/10 06:33:10;;;;;;;14.13;12.77;;;;;;;;;;5112003;28;20208;-80
2023/01/10 06:35:37;;;;;;;17.50;15.07;;;;;;;;;;5105814;28;20231;-80
2023/01/10 06:38:03;;;;;;;19.07;16.90;;;;;;;;;;5091336;28;20203;-81
2023/01/10 06:40:30;;;;;;;19.17;17.27;;;;;;;;;;5091408;28;20204;-80
2023/01/10 06:42:59;;;;;;;15.97;14.47;;;;;;;;;;5090991;28;20212;-81
2023/01/10 06:45:25;;;;;;;18.73;16.53;;;;;;;;;;5090465;28;20204;-80
2023/01/10 06:47:52;;;;;;;20.57;18.40;;;;;;;;;;5091072;28;20200;-80
2023/01/10 06:50:19;;;;;;;24.17;21.60;;;;;;;;;;5090777;28;20667;-80
2023/01/10 06:52:46;;;;;;;18.53;16.60;;;;;;;;;;5090936;28;20215;-82
2023/01/10 06:55:12;;;;;;;20.13;17.63;;;;;;;;;;5084849;28;20223;-80
2023/01/10 06:57:39;;;;;;;24.40;21.83;;;;;;;;;;5097838;28;20200;-80
2023/01/10 07:00:10;;;;;;;25.23;22.00;;;;;;;;;;5111248;28;20268;-80
2023/01/10 07:02:37;;;;;;;23.73;20.37;;;;;;;;;;5110541;28;20204;-80
2023/01/10 07:05:04;;;;;;;34.03;28.83;;;;;;;;;;5110695;28;20608;-80
2023/01/10 07:07:31;;;;;;;24.60;19.37;;;;;;;;;;5110595;28;20195;-80
2023/01/10 07:09:58;;;;;;;18.17;16.27;;;;;;;;;;5110975;28;20199;-80
2023/01/10 07:12:25;;;;;;;22.37;19.10;;;;;;;;;;5095974;28;20207;-80
2023/01/10 07:14:55;;;;;;;18.50;16.60;;;;;;;;;;5098574;28;20250;-80
2023/01/10 07:17:23;;;;;;;16.27;14.57;;;;;;;;;;5111500;28;20284;-79
2023/01/10 07:19:50;;;;;;;17.37;14.63;;;;;;;;;;5110569;28;20210;-78
2023/01/10 07:22:16;;;;;;;15.97;13.70;;;;;;;;;;5097451;28;20196;-80
2023/01/10 07:24:43;;;;;;;15.07;13.57;;;;;;;;;;5110447;28;20256;-78
2023/01/10 07:27:10;;;;;;;12.60;11.50;;;;;;;;;;5110538;28;20216;-77
2023/01/10 07:29:36;;;;;;;14.47;13.13;;;;;;;;;;5101457;28;20212;-78
2023/01/10 07:32:05;;;;;;;14.30;12.53;;;;;;;;;;5093185;28;20200;-79
2023/01/10 07:34:33;;;;;;;14.90;13.50;;;;;;;;;;5090377;28;20270;-79
2023/01/10 07:37:01;;;;;;;19.33;17.53;;;;;;;;;;5104569;28;20200;-79
2023/01/10 07:39:28;;;;;;;18.27;16.60;;;;;;;;;;5100006;28;20577;-79
2023/01/10 07:41:55;;;;;;;19.40;17.40;;;;;;;;;;5094619;28;20195;-79
2023/01/10 07:44:22;;;;;;;14.13;12.83;;;;;;;;;;5100101;28;20216;-80
2023/01/10 07:46:49;;;;;;;37.53;33.47;;;;;;;;;;5094582;28;20196;-80
2023/01/10 07:49:17;;;;;;;14.63;13.13;;;;;;;;;;5110525;28;20295;-80
2023/01/10 07:51:45;;;;;;;14.90;12.20;;;;;;;;;;5096802;28;20196;-80
2023/01/10 07:54:12;;;;;;;16.00;14.23;;;;;;;;;;5110363;28;20235;-80
2023/01/10 07:56:38;;;;;;;17.53;15.60;;;;;;;;;;5096976;28;20689;-80
2023/01/10 07:59:05;;;;;;;17.33;15.53;;;;;;;;;;5114672;28;20212;-81
2023/01/10 08:01:32;;;;;;;14.07;12.63;;;;;;;;;;5114151;28;20682;-81
2023/01/10 08:03:59;;;;;;;13.20;11.80;;;;;;;;;;5114937;28;20685;-80
2023/01/10 08:06:26;;;;;;;10.33;9.43;;;;;;;;;;5114476;28;20226;-80
2023/01/10 08:08:54;;;;;;;12.07;10.80;;;;;;;;;;5114738;28;20203;-81
2023/01/10 08:11:20;;;;;;;15.20;13.80;;;;;;;;;;5109201;28;20663;-81
2023/01/10 08:13:47;;;;;;;13.90;12.50;;;;;;;;;;5107497;28;20264;-81
2023/01/10 08:16:14;;;;;;;15.07;13.50;;;;;;;;;;5114054;28;20245;-80
2023/01/10 08:18:42;;;;;;;12.23;11.13;;;;;;;;;;5101669;28;20218;-83
2023/01/10 08:21:11;;;;;;;11.40;10.20;;;;;;;;;;5086742;28;20239;-80
2023/01/10 08:23:38;;;;;;;10.70;9.70;;;;;;;;;;5114670;28;20222;-81
2023/01/10 08:26:07;;;;;;;12.50;11.33;;;;;;;;;;5107349;28;20200;-80
2023/01/10 08:28:33;;;;;;;10.77;9.67;;;;;;;;;;5108205;28;20204;-80
2023/01/10 08:31:05;;;;;;;10.20;9.20;;;;;;;;;;5114205;28;20199;-80
2023/01/10 08:33:32;;;;;;;13.33;11.87;;;;;;;;;;5087017;28;20567;-80
2023/01/10 08:35:59;;;;;;;14.57;11.57;;;;;;;;;;5114476;28;20223;-80
2023/01/10 08:38:26;;;;;;;12.77;11.50;;;;;;;;;;5095807;28;20208;-80
2023/01/10 08:40:52;;;;;;;14.13;11.67;;;;;;;;;;5082944;28;20204;-80
2023/01/10 08:43:20;;;;;;;11.70;10.63;;;;;;;;;;5093291;28;20200;-80
2023/01/10 08:45:50;;;;;;;11.27;10.17;;;;;;;;;;5093424;28;20203;-80
2023/01/10 08:48:17;;;;;;;11.13;10.07;;;;;;;;;;5093911;28;20205;-79
2023/01/10 08:50:44;;;;;;;12.20;11.10;;;;;;;;;;5103446;28;20750;-81
2023/01/10 08:53:12;;;;;;;10.93;9.87;;;;;;;;;;5109989;28;20200;-80
2023/01/10 08:55:39;;;;;;;9.77;8.80;;;;;;;;;;5093063;28;20312;-80
2023/01/10 08:58:06;;;;;;;13.50;12.17;;;;;;;;;;5093118;28;20620;-80
2023/01/10 09:00:35;;;;;;;9.87;8.93;;;;;;;;;;5092662;28;20605;-79
2023/01/10 09:03:01;;;;;;;10.13;9.20;;;;;;;;;;5079221;28;20200;-79
2023/01/10 09:05:28;;;;;;;11.67;10.23;;;;;;;;;;5092944;28;20224;-79
2023/01/10 09:07:58;;;;;;;9.73;8.90;;;;;;;;;;5092855;28;20201;-79
2023/01/10 09:10:26;;;;;;;9.17;8.37;;;;;;;;;;5091772;28;20675;-79
2023/01/10 09:12:56;;;;;;;12.97;11.67;;;;;;;;;;5079529;28;20585;-79
2023/01/10 09:15:24;;;;;;;12.73;11.47;;;;;;;;;;5092976;28;20230;-78
2023/01/10 09:17:54;;;;;;;11.37;9.60;;;;;;;;;;5099710;28;20207;-78
2023/01/10 09:20:21;;;;;;;12.40;10.93;;;;;;;;;;5112705;28;20200;-78
2023/01/10 09:22:48;;;;;;;10.97;9.93;;;;;;;;;;5100785;28;20203;-78
2023/01/10 09:25:15;;;;;;;8.90;8.10;;;;;;;;;;5111139;28;20693;-78
2023/01/10 09:27:42;;;;;;;9.57;8.70;;;;;;;;;;5087147;28;20619;-78
2023/01/10 09:30:10;;;;;;;10.70;9.70;;;;;;;;;;5098971;28;20609;-79
2023/01/10 09:32:37;;;;;;;13.03;10.10;;;;;;;;;;5112971;28;20199;-78
2023/01/10 09:35:06;;;;;;;13.37;10.53;;;;;;;;;;5112879;28;20223;-78
2023/01/10 09:37:33;;;;;;;10.27;9.33;;;;;;;;;;5112669;28;20353;-78
2023/01/10 09:40:00;;;;;;;12.43;11.33;;;;;;;;;;5112598;28;20665;-79
2023/01/10 09:43:00;;;;;;;12.80;11.50;;;;;;;;;;5095049;28;20683;-79
2023/01/10 09:45:34;;;;;;;12.43;10.43;;;;;;;;;;4997068;28;20696;-79
2023/01/10 09:48:03;;;;;;;13.33;10.70;;;;;;;;;;5078591;28;20223;-79
2023/01/10 09:50:38;;;;;;;9.93;8.93;;;;;;;;;;5091568;28;20201;-79
2023/01/10 09:53:10;;;;;;;12.07;11.00;;;;;;;;;;5078725;28;20204;-79
2023/01/10 09:55:38;;;;;;;12.67;11.37;;;;;;;;;;5092392;28;20227;-79
2023/01/10 09:58:09;;;;;;;12.27;11.00;;;;;;;;;;5091947;28;20200;-79
2023/01/10 10:00:39;;;;;;;16.93;15.07;;;;;;;;;;5092063;28;20200;-79
2023/01/10 10:03:15;;;;;;;14.70;13.20;;;;;;;;;;5092054;28;20204;-80
2023/01/10 10:05:43;;;;;;;15.43;13.53;;;;;;;;;;5105953;28;20704;-80
2023/01/10 10:08:16;;;;;;;14.10;12.80;;;;;;;;;;5112438;28;20203;-80
2023/01/10 10:10:52;;;;;;;12.20;11.00;;;;;;;;;;5083466;28;20205;-80
2023/01/10 10:13:21;;;;;;;9.37;8.47;;;;;;;;;;5092160;28;20200;-80
2023/01/10 10:15:52;;;;;;;10.60;9.50;;;;;;;;;;5078403;28;20315;-79
2023/01/10 10:18:28;;;;;;;9.97;8.77;;;;;;;;;;5092179;28;20275;-80
2023/01/10 10:21:02;;;;;;;10.90;9.90;;;;;;;;;;5091357;28;20203;-84
2023/01/10 10:23:40;;;;;;;9.60;8.63;;;;;;;;;;5105537;28;20629;-79
2023/01/10 10:26:13;;;;;;;11.33;9.43;;;;;;;;;;5111707;28;20207;-79
2023/01/10 10:29:01;;;;;;;10.67;9.50;;;;;;;;;;5084786;28;20204;-80
2023/01/10 10:31:44;;;;;;;10.60;8.80;;;;;;;;;;5110532;28;20670;-80
2023/01/10 10:34:23;;;;;;;9.50;8.60;;;;;;;;;;5112103;28;20582;-81
2023/01/10 10:36:53;;;;;;;10.10;8.90;;;;;;;;;;5084820;28;20236;-80
2023/01/10 10:39:24;;;;;;;10.37;9.43;;;;;;;;;;5111644;28;20211;-80
2023/01/10 10:41:53;;;;;;;9.83;8.93;;;;;;;;;;5084803;28;20200;-80
2023/01/10 10:44:31;;;;;;;10.60;9.53;;;;;;;;;;5111869;28;20264;-80
2023/01/10 10:46:59;;;;;;;9.63;8.73;;;;;;;;;;5111382;28;20641;-81
2023/01/10 10:49:35;;;;;;;9.20;8.30;;;;;;;;;;5087273;28;20258;-81
2023/01/10 10:52:04;;;;;;;9.77;7.90;;;;;;;;;;5071542;28;20212;-81
2023/01/10 10:54:31;;;;;;;8.37;7.63;;;;;;;;;;5086091;28;20200;-80
2023/01/10 10:56:58;;;;;;;7.50;6.83;;;;;;;;;;5091490;28;20231;-79
2023/01/10 10:59:25;;;;;;;8.33;7.63;;;;;;;;;;5090935;28;20212;-80
2023/01/10 11:01:51;;;;;;;10.43;6.90;;;;;;;;;;5091511;28;20197;-80
2023/01/10 11:04:21;;;;;;;7.17;6.57;;;;;;;;;;5091342;28;20201;-80
2023/01/10 11:06:48;;;;;;;7.47;6.77;;;;;;;;;;5091134;28;20702;-80
2023/01/10 11:19:57;;;;;;;7.00;6.40;;;;;;;;;;5091245;28;20211;-79
2023/01/10 11:22:24;;;;;;;8.57;7.77;;;;;;;;;;5090168;28;20200;-79
2023/01/10 11:24:54;;;;;;;8.67;7.80;;;;;;;;;;5079394;28;20197;-81
2023/01/10 11:27:22;;;;;;;8.57;7.87;;;;;;;;;;5094064;28;20207;-79
2023/01/10 11:29:49;;;;;;;8.10;7.40;;;;;;;;;;5110988;28;20204;-81
2023/01/10 11:32:18;;;;;;;11.23;10.20;;;;;;;;;;5109960;28;20283;-80
2023/01/10 11:34:52;;;;;;;16.47;13.40;;;;;;;;;;5099312;28;20196;-80
2023/01/10 11:37:23;;;;;;;8.87;8.03;;;;;;;;;;5077226;28;20223;-81
2023/01/10 11:40:13;;;;;;;8.67;7.77;;;;;;;;;;5090529;28;20741;-80
2023/01/10 11:42:40;;;;;;;9.03;8.23;;;;;;;;;;5090990;28;20204;-80
2023/01/10 11:45:22;;;;;;;8.67;7.97;;;;;;;;;;5086825;28;20197;-81
2023/01/10 11:47:53;;;;;;;8.77;7.97;;;;;;;;;;5084147;28;20208;-80
2023/01/10 11:50:21;;;;;;;8.20;7.47;;;;;;;;;;5090908;28;20654;-80
2023/01/10 11:52:50;;;;;;;8.53;7.83;;;;;;;;;;5077302;28;20675;-80
2023/01/10 11:55:19;;;;;;;8.23;7.53;;;;;;;;;;5091082;28;20200;-81
2023/01/10 11:57:46;;;;;;;7.93;7.13;;;;;;;;;;5090619;28;20247;-80
2023/01/10 12:00:14;;;;;;;8.93;8.23;;;;;;;;;;5090611;28;20694;-80
2023/01/10 12:02:42;;;;;;;8.57;7.87;;;;;;;;;;5106032;28;20678;-81
2023/01/10 12:05:11;;;;;;;8.60;7.80;;;;;;;;;;5110440;28;20713;-80
2023/01/10 12:07:56;;;;;;;7.47;6.77;;;;;;;;;;5097343;28;20269;-80
2023/01/10 12:10:24;;;;;;;7.57;6.97;;;;;;;;;;5111173;28;20199;-80
2023/01/10 12:12:56;;;;;;;7.17;6.43;;;;;;;;;;5091448;28;20212;-81
2023/01/10 12:15:25;;;;;;;9.53;6.43;;;;;;;;;;5090004;28;20236;-81
2023/01/10 12:17:52;;;;;;;5.53;5.13;;;;;;;;;;5070406;28;20727;-80
2023/01/10 12:20:19;;;;;;;7.27;6.57;;;;;;;;;;5097351;28;20644;-81
2023/01/10 12:22:49;;;;;;;5.70;5.20;;;;;;;;;;5084938;28;20228;-81
2023/01/10 12:25:21;;;;;;;6.97;6.27;;;;;;;;;;5095844;28;20220;-81
2023/01/10 12:27:49;;;;;;;6.50;5.93;;;;;;;;;;5099097;28;20660;-81
2023/01/10 12:30:21;;;;;;;6.87;6.17;;;;;;;;;;5095081;28;20204;-81
2023/01/10 12:32:51;;;;;;;6.10;5.60;;;;;;;;;;5080957;28;20683;-80
2023/01/10 12:35:21;;;;;;;7.33;6.63;;;;;;;;;;5086643;28;20207;-80
2023/01/10 12:37:52;;;;;;;7.40;6.80;;;;;;;;;;5090011;28;20200;-81
2023/01/10 12:40:25;;;;;;;5.83;5.33;;;;;;;;;;5090027;28;20203;-80
2023/01/10 12:45:44;;;;;;;7.33;6.63;;;;;;;;;;5072699;28;20323;-80
2023/01/10 12:48:17;;;;;;;7.03;6.43;;;;;;;;;;5092095;28;20205;-80
2023/01/10 12:50:47;;;;;;;7.13;6.50;;;;;;;;;;5113781;28;20207;-80
2023/01/10 12:53:28;;;;;;;6.10;5.60;;;;;;;;;;5086677;28;20298;-80
2023/01/10 12:55:57;;;;;;;8.33;7.53;;;;;;;;;;5113668;28;20231;-80
2023/01/10 12:58:31;;;;;;;9.10;8.30;;;;;;;;;;5080430;28;20204;-80
2023/01/10 13:01:00;;;;;;;6.27;5.77;;;;;;;;;;5091883;28;20602;-80
2023/01/10 13:03:29;;;;;;;7.07;6.47;;;;;;;;;;5081664;28;20219;-80
2023/01/10 13:05:57;;;;;;;5.93;5.43;;;;;;;;;;5092673;28;21080;-81
2023/01/10 13:08:27;;;;;;;9.70;7.50;;;;;;;;;;5093324;28;20204;-80
2023/01/10 13:10:57;;;;;;;6.13;5.63;;;;;;;;;;5095262;28;20270;-80
2023/01/10 13:13:30;;;;;;;6.30;5.80;;;;;;;;;;5103850;28;20261;-81
2023/01/10 13:16:04;;;;;;;3.80;3.60;;;;;;;;;;5110900;28;20227;-80
2023/01/10 13:18:31;;;;;;;4.40;4.00;;;;;;;;;;5113722;28;20267;-81
2023/01/10 13:21:12;;;;;;;5.37;4.97;;;;;;;;;;5113090;28;20203;-81
2023/01/10 13:23:40;;;;;;;5.17;4.77;;;;;;;;;;5085916;28;20197;-81
2023/01/10 13:26:09;;;;;;;5.30;4.80;;;;;;;;;;5113112;28;20273;-82
2023/01/10 13:28:38;;;;;;;5.97;5.47;;;;;;;;;;5111207;28;20207;-84
2023/01/10 13:31:09;;;;;;;5.80;5.30;;;;;;;;;;5092902;28;20196;-81
2023/01/10 13:33:40;;;;;;;5.80;5.30;;;;;;;;;;5079458;28;20680;-81
2023/01/10 13:36:10;;;;;;;5.63;5.23;;;;;;;;;;5091822;28;20231;-82
2023/01/10 13:38:46;;;;;;;4.37;4.07;;;;;;;;;;5110497;28;20583;-85
2023/01/10 13:44:04;;;;;;;5.10;4.70;;;;;;;;;;5087575;28;20214;-81
2023/01/10 13:46:40;;;;;;;4.97;4.57;;;;;;;;;;5097178;28;20203;-81
2023/01/10 13:49:43;;;;;;;5.60;5.00;;;;;;;;;;5103439;28;20750;-86
2023/01/10 13:52:37;;;;;;;4.30;4.00;;;;;;;;;;5030729;28;20209;-81
2023/01/10 13:55:27;;;;;;;5.43;3.87;;;;;;;;;;5098454;28;20214;-81
2023/01/10 13:57:57;;;;;;;4.30;3.90;;;;;;;;;;5095854;28;20317;-80
2023/01/10 14:03:38;;;;;;;2.40;2.30;;;;;;;;;;5092398;28;20207;-81
2023/01/10 14:06:10;;;;;;;3.77;3.40;;;;;;;;;;5092368;28;20583;-80
2023/01/10 14:08:37;;;;;;;2.23;2.13;;;;;;;;;;5092599;28;20208;-83
2023/01/10 14:11:08;;;;;;;4.03;3.73;;;;;;;;;;5092422;28;20198;-81
2023/01/10 14:13:39;;;;;;;3.50;3.30;;;;;;;;;;5092405;28;20215;-80
2023/01/10 14:16:07;;;;;;;4.37;4.07;;;;;;;;;;5078420;28;20705;-80
2023/01/10 14:18:37;;;;;;;4.20;3.90;;;;;;;;;;5092086;28;20332;-81
2023/01/10 14:21:06;;;;;;;5.07;4.77;;;;;;;;;;5092409;28;20595;-80
2023/01/10 14:23:36;;;;;;;3.67;3.47;;;;;;;;;;5078874;28;20201;-80
2023/01/10 14:26:03;;;;;;;11.63;10.33;;;;;;;;;;5100535;28;20203;-80
2023/01/10 14:28:34;;;;;;;9.23;8.33;;;;;;;;;;5098070;28;20265;-80
2023/01/10 14:31:04;;;;;;;9.07;8.27;;;;;;;;;;5103849;28;20231;-80
2023/01/10 14:33:32;;;;;;;12.80;11.43;;;;;;;;;;5106312;28;20268;-80
2023/01/10 14:36:00;;;;;;;5.90;5.30;;;;;;;;;;5111471;28;20192;-80
2023/01/10 14:38:28;;;;;;;4.60;4.30;;;;;;;;;;5109858;28;20810;-80
2023/01/10 14:40:57;;;;;;;5.17;4.87;;;;;;;;;;5100433;28;20210;-81
2023/01/10 14:43:26;;;;;;;7.50;6.90;;;;;;;;;;5078661;28;20204;-80
2023/01/10 14:45:58;;;;;;;5.80;5.40;;;;;;;;;;5081850;28;20617;-80
2023/01/10 14:48:29;;;;;;;4.97;4.63;;;;;;;;;;5091348;28;20258;-80
2023/01/10 14:51:26;;;;;;;5.97;5.47;;;;;;;;;;5091492;28;20367;-80
2023/01/10 14:54:01;;;;;;;6.63;6.13;;;;;;;;;;4999140;28;20207;-80
2023/01/10 14:56:30;;;;;;;5.47;5.13;;;;;;;;;;5064125;28;20235;-79
2023/01/10 14:58:56;;;;;;;4.00;3.37;;;;;;;;;;5091489;28;20192;-79
2023/01/10 15:01:25;;;;;;;4.27;3.97;;;;;;;;;;5109378;28;20215;-80
2023/01/10 15:03:55;;;;;;;3.63;3.43;;;;;;;;;;5099493;28;20208;-80
2023/01/10 15:06:23;;;;;;;4.13;3.73;;;;;;;;;;5109723;28;20735;-79